Time;durP1;ratioP1;P1;durP2;ratioP2;P2;SDS_P1;SDS_P2;PMS_P1;PMS_P2;Temp;Humidity;BMP_temperature;BMP_pressure;BME280_temperature;BME280_humidity;BME280_pressure;Samples;Min_cycle;Max_cycle;Signal;HPM_P1;HPM_P2
2020/12/23 00:01:56;;;;;;;;;;;21.50;53.00;;;;;;5115911;28;1314;-67
2020/12/23 00:04:22;;;;;;;;;;;21.40;53.00;;;;;;5115480;28;1977;-67
2020/12/23 00:06:47;;;;;;;;;;;21.50;53.10;;;;;;5115816;28;1020;-66
2020/12/23 00:09:13;;;;;;;;;;;21.40;53.10;;;;;;5097022;28;1368;-68
2020/12/23 00:11:38;;;;;;;;;;;21.40;53.10;;;;;;5115896;28;1264;-67
2020/12/23 00:14:04;;;;;;;;;;;21.40;53.10;;;;;;5115723;28;1360;-67
2020/12/23 00:16:29;;;;;;;;;;;21.40;53.20;;;;;;5114966;28;1283;-68
2020/12/23 00:18:54;;;;;;;;;;;21.40;53.20;;;;;;5096928;28;1475;-67
2020/12/23 00:21:20;;;;;;;;;;;21.40;53.30;;;;;;5097181;28;1224;-68
2020/12/23 00:23:45;;;;;;;;;;;21.30;53.20;;;;;;5114775;28;1047;-68
2020/12/23 00:26:14;;;;;;;;;;;21.30;53.30;;;;;;5114946;28;1906;-68
2020/12/23 00:28:41;;;;;;;;;;;21.30;53.30;;;;;;5115765;28;1253;-67
2020/12/23 00:31:06;;;;;;;;;;;21.30;53.40;;;;;;5095829;28;1349;-68
2020/12/23 00:33:32;;;;;;;;;;;21.30;53.40;;;;;;5115116;28;1070;-68
2020/12/23 00:35:57;;;;;;;;;;;21.30;53.40;;;;;;5114088;28;1287;-68
2020/12/23 00:38:23;;;;;;;;;;;21.30;53.50;;;;;;5096798;28;1282;-67
2020/12/23 00:40:48;;;;;;;;;;;21.20;53.40;;;;;;5096984;28;1416;-68
2020/12/23 00:43:14;;;;;;;;;;;21.20;53.50;;;;;;5096820;28;1402;-68
2020/12/23 00:45:40;;;;;;;;;;;21.20;53.50;;;;;;5114277;28;2242;-67
2020/12/23 00:48:05;;;;;;;;;;;21.20;53.60;;;;;;5114626;28;1261;-67
2020/12/23 00:50:31;;;;;;;;;;;21.20;53.60;;;;;;5114562;28;1269;-68
2020/12/23 00:52:56;;;;;;;;;;;21.20;53.60;;;;;;5091516;28;1200;-68
2020/12/23 00:55:22;;;;;;;;;;;21.20;53.70;;;;;;5106888;28;1364;-67
2020/12/23 00:57:47;;;;;;;;;;;21.10;53.70;;;;;;5106517;28;1311;-67
2020/12/23 01:00:12;;;;;;;;;;;21.10;53.70;;;;;;5108496;28;1367;-67
2020/12/23 01:02:38;;;;;;;;;;;21.10;53.70;;;;;;5107284;28;1406;-68
2020/12/23 01:05:03;;;;;;;;;;;21.10;53.80;;;;;;5090994;28;1910;-67
2020/12/23 01:07:29;;;;;;;;;;;21.10;53.80;;;;;;5102706;28;1207;-67
2020/12/23 01:09:54;;;;;;;;;;;21.10;53.80;;;;;;5108974;28;1429;-68
2020/12/23 01:12:20;;;;;;;;;;;21.10;53.80;;;;;;5106928;28;1455;-68
2020/12/23 01:14:45;;;;;;;;;;;21.10;53.90;;;;;;5089569;28;1395;-68
2020/12/23 01:17:11;;;;;;;;;;;21.00;53.90;;;;;;5104798;28;1398;-68
2020/12/23 01:19:37;;;;;;;;;;;21.00;53.90;;;;;;5107035;28;1359;-67
2020/12/23 01:22:02;;;;;;;;;;;21.00;53.90;;;;;;5103370;28;1339;-67
2020/12/23 01:24:28;;;;;;;;;;;21.00;54.00;;;;;;5113639;28;1901;-67
2020/12/23 01:26:53;;;;;;;;;;;21.00;54.00;;;;;;5115437;28;1441;-68
2020/12/23 01:29:19;;;;;;;;;;;21.00;54.00;;;;;;5113590;28;1333;-68
2020/12/23 01:31:44;;;;;;;;;;;21.00;54.10;;;;;;5116491;28;1293;-68
2020/12/23 01:34:10;;;;;;;;;;;21.00;54.10;;;;;;5116916;28;1282;-67
2020/12/23 01:36:35;;;;;;;;;;;21.00;54.10;;;;;;5117528;28;1302;-67
2020/12/23 01:39:00;;;;;;;;;;;21.00;54.10;;;;;;5098142;28;1351;-68
2020/12/23 01:41:26;;;;;;;;;;;20.90;54.10;;;;;;5115485;28;1329;-67
2020/12/23 01:43:55;;;;;;;;;;;20.90;54.10;;;;;;5114775;28;1301;-67
2020/12/23 01:46:28;;;;;;;;;;;20.90;54.10;;;;;;5114627;28;1967;-67
2020/12/23 01:48:54;;;;;;;;;;;20.90;54.20;;;;;;5114776;28;1288;-67
2020/12/23 01:51:19;;;;;;;;;;;20.90;54.20;;;;;;5096700;28;1256;-69
2020/12/23 01:53:44;;;;;;;;;;;20.90;54.20;;;;;;5114439;28;1313;-69
2020/12/23 01:56:10;;;;;;;;;;;20.90;54.30;;;;;;5114221;28;1317;-68
2020/12/23 01:58:35;;;;;;;;;;;20.90;54.30;;;;;;5085453;28;1390;-68
2020/12/23 02:01:01;;;;;;;;;;;20.90;54.30;;;;;;5114193;28;1282;-69
2020/12/23 02:03:26;;;;;;;;;;;20.80;54.30;;;;;;5096075;28;1291;-68
2020/12/23 02:05:52;;;;;;;;;;;20.80;54.30;;;;;;5113825;28;1894;-67
2020/12/23 02:08:17;;;;;;;;;;;20.90;54.40;;;;;;5114844;28;1238;-67
2020/12/23 02:10:43;;;;;;;;;;;20.80;54.40;;;;;;5115281;28;1118;-67
2020/12/23 02:13:09;;;;;;;;;;;20.80;54.40;;;;;;5114328;28;1374;-67
2020/12/23 02:15:34;;;;;;;;;;;20.80;54.40;;;;;;5114034;28;1237;-67
2020/12/23 02:18:00;;;;;;;;;;;20.80;54.50;;;;;;5113380;28;1157;-67
2020/12/23 02:20:25;;;;;;;;;;;20.80;54.50;;;;;;5114182;28;1319;-67
2020/12/23 02:22:51;;;;;;;;;;;20.80;54.50;;;;;;5114225;28;1307;-67
2020/12/23 02:25:16;;;;;;;;;;;20.80;54.50;;;;;;5113479;28;1969;-67
2020/12/23 02:27:42;;;;;;;;;;;20.80;54.60;;;;;;5095788;28;1404;-67
2020/12/23 02:30:08;;;;;;;;;;;20.80;54.60;;;;;;5096001;28;1237;-67
2020/12/23 02:32:33;;;;;;;;;;;20.70;54.50;;;;;;5113934;28;1271;-67
2020/12/23 02:34:59;;;;;;;;;;;20.70;54.60;;;;;;5113329;28;1267;-67
2020/12/23 02:37:24;;;;;;;;;;;20.70;54.50;;;;;;5095455;28;1335;-67
2020/12/23 02:39:51;;;;;;;;;;;20.70;54.50;;;;;;5095746;28;1275;-67
2020/12/23 02:42:16;;;;;;;;;;;20.70;54.50;;;;;;5114016;28;1305;-67
2020/12/23 02:44:42;;;;;;;;;;;20.70;54.60;;;;;;5095049;28;1894;-68
2020/12/23 02:47:08;;;;;;;;;;;20.70;54.60;;;;;;5095045;28;1223;-69
2020/12/23 02:49:33;;;;;;;;;;;20.70;54.60;;;;;;5095211;28;1093;-69
2020/12/23 02:51:59;;;;;;;;;;;20.70;54.60;;;;;;5113844;28;1177;-69
2020/12/23 02:54:24;;;;;;;;;;;20.60;54.60;;;;;;5112996;28;1251;-68
2020/12/23 02:56:50;;;;;;;;;;;20.70;54.70;;;;;;5093904;28;1302;-68
2020/12/23 02:59:16;;;;;;;;;;;20.70;54.70;;;;;;5086064;28;1299;-68
2020/12/23 03:01:41;;;;;;;;;;;20.70;54.70;;;;;;5095160;28;1275;-67
2020/12/23 03:04:06;;;;;;;;;;;20.70;54.70;;;;;;5094395;28;1360;-67
2020/12/23 03:06:32;;;;;;;;;;;20.70;54.70;;;;;;5094502;28;1965;-67
2020/12/23 03:08:58;;;;;;;;;;;20.70;54.80;;;;;;5095001;28;1318;-68
2020/12/23 03:11:23;;;;;;;;;;;20.70;54.80;;;;;;5112915;28;1302;-68
2020/12/23 03:13:49;;;;;;;;;;;20.70;54.80;;;;;;5113497;28;1321;-67
2020/12/23 03:16:14;;;;;;;;;;;20.70;54.80;;;;;;5113113;28;1300;-68
2020/12/23 03:18:40;;;;;;;;;;;20.60;54.80;;;;;;5113274;28;1274;-69
2020/12/23 03:21:05;;;;;;;;;;;20.60;54.80;;;;;;5094773;28;1044;-68
2020/12/23 03:23:31;;;;;;;;;;;20.60;54.80;;;;;;5094831;28;1413;-69
2020/12/23 03:25:57;;;;;;;;;;;20.60;54.80;;;;;;5077280;28;1902;-69
2020/12/23 03:28:22;;;;;;;;;;;20.60;54.80;;;;;;5113278;28;1295;-68
2020/12/23 03:30:47;;;;;;;;;;;20.60;54.80;;;;;;5111616;28;1188;-67
2020/12/23 03:33:13;;;;;;;;;;;20.60;54.90;;;;;;5112446;28;1326;-67
2020/12/23 03:35:38;;;;;;;;;;;20.60;54.90;;;;;;5112765;28;1318;-67
2020/12/23 03:38:04;;;;;;;;;;;20.60;54.90;;;;;;5112799;28;1245;-67
2020/12/23 03:40:29;;;;;;;;;;;20.60;54.90;;;;;;5112976;28;1444;-67
2020/12/23 03:42:55;;;;;;;;;;;20.60;54.90;;;;;;5112978;28;1285;-67
2020/12/23 03:45:20;;;;;;;;;;;20.60;54.90;;;;;;5112456;28;1905;-67
2020/12/23 03:47:46;;;;;;;;;;;20.60;55.00;;;;;;5112649;28;1087;-67
2020/12/23 03:50:11;;;;;;;;;;;20.60;54.90;;;;;;5112931;28;1313;-67
2020/12/23 03:52:36;;;;;;;;;;;20.50;54.90;;;;;;5113185;28;1342;-67
2020/12/23 03:55:02;;;;;;;;;;;20.60;55.00;;;;;;5112443;28;1639;-67
2020/12/23 03:57:28;;;;;;;;;;;20.50;54.90;;;;;;5088146;28;1349;-67
2020/12/23 03:59:53;;;;;;;;;;;20.60;55.00;;;;;;5108821;28;1306;-67
2020/12/23 04:02:18;;;;;;;;;;;20.50;54.90;;;;;;5094521;28;1294;-67
2020/12/23 04:04:44;;;;;;;;;;;20.50;54.90;;;;;;5112164;28;1906;-67
2020/12/23 04:07:09;;;;;;;;;;;20.50;54.90;;;;;;5114067;28;1067;-67
2020/12/23 04:09:35;;;;;;;;;;;20.50;55.50;;;;;;5113329;28;1380;-68
2020/12/23 04:12:00;;;;;;;;;;;20.50;54.80;;;;;;5114404;28;1340;-68
2020/12/23 04:14:26;;;;;;;;;;;20.50;54.70;;;;;;5114055;28;1330;-67
2020/12/23 04:16:51;;;;;;;;;;;20.60;54.70;;;;;;5113438;28;1294;-67
2020/12/23 04:19:17;;;;;;;;;;;20.70;54.70;;;;;;5113416;28;1258;-68
2020/12/23 04:21:42;;;;;;;;;;;20.70;54.50;;;;;;5114312;28;1412;-67
2020/12/23 04:24:07;;;;;;;;;;;20.80;54.40;;;;;;5094510;28;1951;-68
2020/12/23 04:26:33;;;;;;;;;;;20.90;54.20;;;;;;5112756;28;1938;-68
2020/12/23 04:28:58;;;;;;;;;;;21.00;54.10;;;;;;5094312;28;1363;-68
2020/12/23 04:31:24;;;;;;;;;;;21.10;53.80;;;;;;5112477;28;1025;-68
2020/12/23 04:33:49;;;;;;;;;;;21.20;53.70;;;;;;5112864;28;1364;-68
2020/12/23 04:36:15;;;;;;;;;;;21.30;53.40;;;;;;5093872;28;1399;-68
2020/12/23 04:38:40;;;;;;;;;;;21.40;53.30;;;;;;5112999;28;1371;-68
2020/12/23 04:41:06;;;;;;;;;;;21.50;53.10;;;;;;5114323;28;1165;-68
2020/12/23 04:43:31;;;;;;;;;;;21.60;52.90;;;;;;5102728;28;1462;-68
2020/12/23 04:45:57;;;;;;;;;;;21.60;52.70;;;;;;5117075;28;1953;-67
2020/12/23 04:48:25;;;;;;;;;;;21.70;52.60;;;;;;5098026;28;1118;-67
2020/12/23 04:50:52;;;;;;;;;;;21.70;52.40;;;;;;5116323;28;1277;-68
2020/12/23 04:53:18;;;;;;;;;;;21.80;52.30;;;;;;5097821;28;1355;-68
2020/12/23 04:55:43;;;;;;;;;;;21.80;52.20;;;;;;5115310;28;1348;-68
2020/12/23 04:58:09;;;;;;;;;;;21.80;52.10;;;;;;5086277;28;1357;-68
2020/12/23 05:00:34;;;;;;;;;;;21.90;52.10;;;;;;5097513;28;1389;-68
2020/12/23 05:02:59;;;;;;;;;;;21.90;52.00;;;;;;5115640;28;1260;-68
2020/12/23 05:05:25;;;;;;;;;;;22.00;52.00;;;;;;5129303;22;2029;-66
2020/12/23 05:07:50;;;;;;;;;;;22.00;51.90;;;;;;5069250;28;1509;-66
2020/12/23 05:10:16;;;;;;;;;;;22.00;51.80;;;;;;5057399;28;1398;-66
2020/12/23 05:12:41;;;;;;;;;;;22.10;51.80;;;;;;5061043;28;1953;-64
2020/12/23 05:15:07;;;;;;;;;;;22.00;51.70;;;;;;5061320;28;1978;-63
2020/12/23 05:17:32;;;;;;;;;;;22.10;51.70;;;;;;5073518;28;1402;-64
2020/12/23 05:19:58;;;;;;;;;;;22.10;51.60;;;;;;5074421;28;1380;-63
2020/12/23 05:22:23;;;;;;;;;;;22.10;51.60;;;;;;5074442;28;1677;-63
2020/12/23 05:24:51;;;;;;;;;;;22.20;51.60;;;;;;5055362;28;1906;-63
2020/12/23 05:27:16;;;;;;;;;;;22.20;51.50;;;;;;5055524;28;1713;-64
2020/12/23 05:29:45;;;;;;;;;;;22.20;51.50;;;;;;5055504;28;1509;-63
2020/12/23 05:32:11;;;;;;;;;;;22.20;51.40;;;;;;5073696;28;1386;-63
2020/12/23 05:34:36;;;;;;;;;;;22.20;51.40;;;;;;5073455;28;1135;-65
2020/12/23 05:37:03;;;;;;;;;;;22.30;51.40;;;;;;5073044;28;1202;-63
2020/12/23 05:39:31;;;;;;;;;;;22.30;51.40;;;;;;5073612;28;1712;-64
2020/12/23 05:41:57;;;;;;;;;;;22.30;51.30;;;;;;5073619;28;1667;-64
2020/12/23 05:44:23;;;;;;;;;;;22.30;51.30;;;;;;5072578;28;1625;-63
2020/12/23 05:46:48;;;;;;;;;;;22.30;51.30;;;;;;5073016;28;1957;-63
2020/12/23 05:49:14;;;;;;;;;;;22.30;51.30;;;;;;5074324;28;1249;-63
2020/12/23 05:51:40;;;;;;;;;;;22.30;51.30;;;;;;5055636;28;1469;-63
2020/12/23 05:54:06;;;;;;;;;;;22.30;51.30;;;;;;5054338;28;1598;-63
2020/12/23 05:56:36;;;;;;;;;;;22.30;51.30;;;;;;5073092;28;1656;-63
2020/12/23 05:59:01;;;;;;;;;;;22.30;51.30;;;;;;5072597;28;1481;-63
2020/12/23 06:01:27;;;;;;;;;;;22.30;51.30;;;;;;5073372;28;1440;-64
2020/12/23 06:03:57;;;;;;;;;;;22.30;51.30;;;;;;5054848;28;1718;-64
2020/12/23 06:06:26;;;;;;;;;;;22.30;51.40;;;;;;5072351;28;1910;-64
2020/12/23 06:08:52;;;;;;;;;;;22.30;51.40;;;;;;5073256;28;1385;-64
2020/12/23 06:11:24;;;;;;;;;;;22.30;51.50;;;;;;5055133;28;1707;-63
2020/12/23 06:14:08;;;;;;;;;;;22.30;51.50;;;;;;5053845;28;1334;-63
2020/12/23 06:16:34;;;;;;;;;;;22.30;51.50;;;;;;5072410;28;1476;-64
2020/12/23 06:19:00;;;;;;;;;;;22.30;51.60;;;;;;5055036;28;1594;-63
2020/12/23 06:21:26;;;;;;;;;;;22.20;51.60;;;;;;5072987;28;1594;-63
2020/12/23 06:23:53;;;;;;;;;;;22.20;51.60;;;;;;5072314;28;1373;-63
2020/12/23 06:26:18;;;;;;;;;;;22.20;51.70;;;;;;5053878;28;1894;-64
2020/12/23 06:28:44;;;;;;;;;;;22.20;51.80;;;;;;5072069;28;1383;-63
2020/12/23 06:31:09;;;;;;;;;;;22.20;51.80;;;;;;5055637;28;1647;-64
2020/12/23 06:33:37;;;;;;;;;;;22.10;51.80;;;;;;5054258;28;1628;-64
2020/12/23 06:36:11;;;;;;;;;;;22.10;51.90;;;;;;5072105;28;1671;-66
2020/12/23 06:38:36;;;;;;;;;;;22.10;51.90;;;;;;5069164;28;2076;-66
2020/12/23 06:41:02;;;;;;;;;;;22.10;52.00;;;;;;5062982;28;1300;-66
2020/12/23 06:43:50;;;;;;;;;;;22.00;52.00;;;;;;5071076;28;1342;-66
2020/12/23 06:46:16;;;;;;;;;;;22.00;52.00;;;;;;5051381;28;1926;-66
2020/12/23 06:48:41;;;;;;;;;;;22.00;52.10;;;;;;5068431;28;1314;-66
2020/12/23 06:51:07;;;;;;;;;;;22.00;52.10;;;;;;5060753;28;1476;-66
2020/12/23 06:53:36;;;;;;;;;;;22.00;52.20;;;;;;5050631;28;1539;-66
2020/12/23 06:56:01;;;;;;;;;;;21.90;52.20;;;;;;5072521;28;1579;-66
2020/12/23 06:58:36;;;;;;;;;;;21.90;52.30;;;;;;5073136;28;1688;-65
2020/12/23 07:01:34;;;;;;;;;;;21.90;52.20;;;;;;5072851;28;1370;-66
2020/12/23 07:04:01;;;;;;;;;;;21.90;52.40;;;;;;5028063;28;1429;-65
2020/12/23 07:06:33;;;;;;;;;;;21.80;52.50;;;;;;5053354;28;1977;-65
2020/12/23 07:09:05;;;;;;;;;;;21.80;52.50;;;;;;5055373;28;1635;-65
2020/12/23 07:11:31;;;;;;;;;;;21.80;52.50;;;;;;5054887;28;1710;-65
2020/12/23 07:13:57;;;;;;;;;;;21.80;52.60;;;;;;5054682;28;1443;-65
2020/12/23 07:16:23;;;;;;;;;;;21.80;52.60;;;;;;5072517;28;1654;-65
2020/12/23 07:18:48;;;;;;;;;;;21.80;52.60;;;;;;5072861;28;1290;-65
2020/12/23 07:21:14;;;;;;;;;;;21.80;52.60;;;;;;5072783;28;1466;-65
2020/12/23 07:23:39;;;;;;;;;;;21.70;52.60;;;;;;5042976;28;1481;-65
2020/12/23 07:26:05;;;;;;;;;;;21.70;52.70;;;;;;5052517;28;1910;-65
2020/12/23 07:28:41;;;;;;;;;;;21.70;52.70;;;;;;5071386;28;1698;-64
2020/12/23 07:31:09;;;;;;;;;;;21.70;52.80;;;;;;5070001;28;1616;-65
2020/12/23 07:33:37;;;;;;;;;;;21.70;52.80;;;;;;5053564;28;1686;-64
2020/12/23 07:36:03;;;;;;;;;;;21.70;52.80;;;;;;5053713;28;1803;-65
2020/12/23 07:38:30;;;;;;;;;;;21.70;52.90;;;;;;5071364;28;1694;-65
2020/12/23 07:40:55;;;;;;;;;;;21.70;52.90;;;;;;5070951;28;1369;-65
2020/12/23 07:43:21;;;;;;;;;;;21.70;52.90;;;;;;5071167;28;1698;-65
2020/12/23 07:45:46;;;;;;;;;;;21.60;52.90;;;;;;5071384;28;1922;-64
2020/12/23 07:48:15;;;;;;;;;;;21.60;52.90;;;;;;5053211;28;1853;-64
2020/12/23 07:50:42;;;;;;;;;;;21.60;53.00;;;;;;5053931;28;1750;-65
2020/12/23 07:53:17;;;;;;;;;;;21.60;53.00;;;;;;5053136;28;1710;-64
2020/12/23 07:55:43;;;;;;;;;;;21.60;53.00;;;;;;5053328;28;1615;-64
2020/12/23 07:58:09;;;;;;;;;;;21.60;53.10;;;;;;5070613;28;1509;-67
2020/12/23 08:00:37;;;;;;;;;;;21.50;53.10;;;;;;5072336;28;1678;-66
2020/12/23 08:03:02;;;;;;;;;;;21.50;53.10;;;;;;5054265;28;1565;-67
2020/12/23 08:05:28;;;;;;;;;;;21.50;53.10;;;;;;5053798;28;1930;-67
2020/12/23 08:07:53;;;;;;;;;;;21.50;53.20;;;;;;5071915;28;1411;-67
2020/12/23 08:10:20;;;;;;;;;;;21.50;53.20;;;;;;5071705;28;1687;-67
2020/12/23 08:12:52;;;;;;;;;;;21.60;53.20;;;;;;5071972;28;1687;-67
2020/12/23 08:15:17;;;;;;;;;;;21.60;53.10;;;;;;5071703;28;1632;-67
2020/12/23 08:17:43;;;;;;;;;;;21.60;53.10;;;;;;5074832;28;1709;-67
2020/12/23 08:20:13;;;;;;;;;;;21.60;52.90;;;;;;5058360;28;1696;-66
2020/12/23 08:22:39;;;;;;;;;;;21.70;52.90;;;;;;5075639;28;1572;-66
2020/12/23 08:25:06;;;;;;;;;;;21.70;52.70;;;;;;5057238;28;1973;-66
2020/12/23 08:27:32;;;;;;;;;;;21.80;52.60;;;;;;5058114;28;1430;-66
2020/12/23 08:29:57;;;;;;;;;;;21.90;52.50;;;;;;5076301;28;1220;-66
2020/12/23 08:32:24;;;;;;;;;;;21.90;52.40;;;;;;5075861;28;1686;-66
2020/12/23 08:34:49;;;;;;;;;;;22.00;52.30;;;;;;5074877;28;1594;-66
2020/12/23 08:37:21;;;;;;;;;;;22.10;52.20;;;;;;5057215;28;1726;-66
2020/12/23 08:39:56;;;;;;;;;;;22.10;52.10;;;;;;5075849;28;1351;-66
2020/12/23 08:42:22;;;;;;;;;;;22.10;52.00;;;;;;5075864;28;1675;-67
2020/12/23 08:44:52;;;;;;;;;;;22.10;51.90;;;;;;5056919;28;1983;-68
2020/12/23 08:47:22;;;;;;;;;;;22.20;51.90;;;;;;5057298;28;1501;-66
2020/12/23 08:49:47;;;;;;;;;;;22.20;51.80;;;;;;5057805;28;1611;-66
2020/12/23 08:52:16;;;;;;;;;;;22.20;51.70;;;;;;5075053;28;1440;-66
2020/12/23 08:54:43;;;;;;;;;;;22.20;51.70;;;;;;5074595;28;1421;-67
2020/12/23 08:57:27;;;;;;;;;;;22.20;51.70;;;;;;5074852;28;1603;-66
2020/12/23 08:59:53;;;;;;;;;;;22.20;51.60;;;;;;5075085;28;1744;-66
2020/12/23 09:02:18;;;;;;;;;;;22.30;51.70;;;;;;5075076;28;1596;-66
2020/12/23 09:04:44;;;;;;;;;;;22.30;51.70;;;;;;5073320;28;1961;-66
2020/12/23 09:07:09;;;;;;;;;;;22.30;51.70;;;;;;5056756;28;1607;-66
2020/12/23 09:09:35;;;;;;;;;;;22.30;51.70;;;;;;5074971;28;1449;-66
2020/12/23 09:12:02;;;;;;;;;;;22.30;51.70;;;;;;5071139;28;1453;-65
2020/12/23 09:14:30;;;;;;;;;;;22.20;51.70;;;;;;5064164;28;1545;-66
2020/12/23 09:17:05;;;;;;;;;;;22.20;51.70;;;;;;5074159;28;1392;-66
2020/12/23 09:19:49;;;;;;;;;;;22.20;51.70;;;;;;5075134;28;1345;-67
2020/12/23 09:22:28;;;;;;;;;;;22.20;51.70;;;;;;5074601;28;1333;-66
2020/12/23 09:25:09;;;;;;;;;;;22.20;51.80;;;;;;5074386;28;1973;-66
2020/12/23 09:27:35;;;;;;;;;;;22.20;52.40;;;;;;5074004;28;1450;-66
2020/12/23 09:30:00;;;;;;;;;;;22.20;51.90;;;;;;5056253;28;1436;-66
2020/12/23 09:32:26;;;;;;;;;;;22.20;51.90;;;;;;5074384;28;1605;-65
2020/12/23 09:34:51;;;;;;;;;;;22.10;51.90;;;;;;5074034;28;1382;-66
2020/12/23 09:37:27;;;;;;;;;;;22.10;52.00;;;;;;5074261;28;1554;-67
2020/12/23 09:39:52;;;;;;;;;;;22.10;52.00;;;;;;5074230;28;1580;-66
2020/12/23 09:42:17;;;;;;;;;;;22.10;52.00;;;;;;5069696;28;1976;-65
2020/12/23 09:44:43;;;;;;;;;;;22.00;52.00;;;;;;5072030;28;1967;-66
2020/12/23 09:47:08;;;;;;;;;;;22.10;52.10;;;;;;5072971;28;1435;-66
2020/12/23 09:49:34;;;;;;;;;;;22.00;52.10;;;;;;5073434;28;1390;-65
2020/12/23 09:52:01;;;;;;;;;;;22.00;52.10;;;;;;5072921;28;1640;-65
2020/12/23 09:54:27;;;;;;;;;;;22.00;52.20;;;;;;5069816;28;1147;-64
2020/12/23 09:56:53;;;;;;;;;;;21.90;52.20;;;;;;5072455;28;1589;-64
2020/12/23 09:59:18;;;;;;;;;;;21.90;52.20;;;;;;5073168;28;1359;-65
2020/12/23 10:01:44;;;;;;;;;;;21.90;52.20;;;;;;5073165;28;1653;-64
2020/12/23 10:04:10;;;;;;;;;;;21.90;52.20;;;;;;5054891;28;1325;-65
2020/12/23 10:06:35;;;;;;;;;;;22.00;52.20;;;;;;5072770;28;1898;-65
2020/12/23 10:09:01;;;;;;;;;;;22.00;52.20;;;;;;5055078;28;1599;-64
2020/12/23 10:11:27;;;;;;;;;;;22.00;52.10;;;;;;5054404;28;1411;-64
2020/12/23 10:13:52;;;;;;;;;;;22.10;52.10;;;;;;5072275;28;1395;-64
2020/12/23 10:16:18;;;;;;;;;;;22.00;52.00;;;;;;5072493;28;1402;-65
2020/12/23 10:18:43;;;;;;;;;;;22.00;52.00;;;;;;5072403;28;1760;-65
2020/12/23 10:21:09;;;;;;;;;;;22.10;52.00;;;;;;5072375;28;1384;-65
2020/12/23 10:23:34;;;;;;;;;;;22.10;52.00;;;;;;5054642;28;1600;-65
2020/12/23 10:25:59;;;;;;;;;;;22.10;51.90;;;;;;5054629;28;1965;-65
2020/12/23 10:28:25;;;;;;;;;;;22.10;52.00;;;;;;5072034;28;1229;-65
2020/12/23 10:30:51;;;;;;;;;;;22.20;51.90;;;;;;5072655;28;1379;-64
2020/12/23 10:33:16;;;;;;;;;;;22.20;51.90;;;;;;5072132;28;1438;-65
2020/12/23 10:35:41;;;;;;;;;;;22.20;51.80;;;;;;5071848;28;1588;-64
2020/12/23 10:38:07;;;;;;;;;;;22.20;51.80;;;;;;5071808;28;1484;-65
2020/12/23 10:40:32;;;;;;;;;;;22.20;51.70;;;;;;5072253;28;1386;-64
2020/12/23 10:42:58;;;;;;;;;;;22.30;51.80;;;;;;5053850;28;1635;-65
2020/12/23 10:45:24;;;;;;;;;;;22.20;51.70;;;;;;5054101;28;1949;-65
2020/12/23 10:47:49;;;;;;;;;;;22.30;51.70;;;;;;5066221;28;1165;-65
2020/12/23 10:50:14;;;;;;;;;;;22.30;51.60;;;;;;5065726;28;1327;-64
2020/12/23 10:52:40;;;;;;;;;;;22.30;51.60;;;;;;5061658;28;1155;-65
2020/12/23 10:55:05;;;;;;;;;;;22.30;51.50;;;;;;5071316;28;1587;-65
2020/12/23 10:57:33;;;;;;;;;;;22.30;51.50;;;;;;5071475;28;1334;-64
2020/12/23 10:59:59;;;;;;;;;;;22.30;51.40;;;;;;5071940;28;1698;-65
2020/12/23 11:02:24;;;;;;;;;;;22.30;51.40;;;;;;5072062;28;1660;-65
2020/12/23 11:04:50;;;;;;;;;;;22.30;51.40;;;;;;5070879;28;1898;-65
2020/12/23 11:07:15;;;;;;;;;;;22.30;51.50;;;;;;5071118;28;1368;-65
2020/12/23 11:09:41;;;;;;;;;;;22.40;51.50;;;;;;5071467;28;1299;-65
2020/12/23 11:12:06;;;;;;;;;;;22.30;51.50;;;;;;5050555;28;1251;-65
2020/12/23 11:14:32;;;;;;;;;;;22.30;51.50;;;;;;5064182;28;1165;-65
2020/12/23 11:16:57;;;;;;;;;;;22.30;51.40;;;;;;5068324;28;1307;-66
2020/12/23 11:19:23;;;;;;;;;;;22.30;51.50;;;;;;5070153;28;1306;-66
2020/12/23 11:21:48;;;;;;;;;;;22.30;51.50;;;;;;5070653;28;1331;-65
2020/12/23 11:24:14;;;;;;;;;;;22.30;52.10;;;;;;5071533;28;1279;-66
2020/12/23 11:26:40;;;;;;;;;;;22.30;51.40;;;;;;5070781;28;1913;-66
2020/12/23 11:29:05;;;;;;;;;;;22.30;51.40;;;;;;5052156;28;1350;-66
2020/12/23 11:31:31;;;;;;;;;;;22.30;51.40;;;;;;5070917;28;1251;-66
2020/12/23 11:33:56;;;;;;;;;;;22.30;51.40;;;;;;5069489;28;1294;-66
2020/12/23 11:36:22;;;;;;;;;;;22.30;51.50;;;;;;5070000;28;1714;-65
2020/12/23 11:38:47;;;;;;;;;;;22.30;51.40;;;;;;5050914;28;1166;-65
2020/12/23 11:41:14;;;;;;;;;;;22.30;51.40;;;;;;5070674;28;1323;-65
2020/12/23 11:43:40;;;;;;;;;;;22.30;51.40;;;;;;5052684;28;1300;-65
2020/12/23 11:46:05;;;;;;;;;;;22.30;51.30;;;;;;5070133;28;1965;-65
2020/12/23 11:48:31;;;;;;;;;;;22.30;51.30;;;;;;5070486;28;1103;-65
2020/12/23 11:50:57;;;;;;;;;;;22.30;51.40;;;;;;5060621;28;1240;-66
2020/12/23 11:53:22;;;;;;;;;;;22.30;51.40;;;;;;5066277;28;1354;-66
2020/12/23 11:55:48;;;;;;;;;;;22.30;51.40;;;;;;5070029;28;1377;-66
2020/12/23 11:58:14;;;;;;;;;;;22.30;51.40;;;;;;5070116;28;1267;-66
2020/12/23 12:00:39;;;;;;;;;;;22.40;51.40;;;;;;5070724;28;1319;-65
2020/12/23 12:03:05;;;;;;;;;;;22.30;51.30;;;;;;5070339;28;1255;-66
2020/12/23 12:05:30;;;;;;;;;;;22.40;51.40;;;;;;5069835;28;1909;-65
2020/12/23 12:07:56;;;;;;;;;;;22.40;51.30;;;;;;5069980;28;1348;-65
2020/12/23 12:10:21;;;;;;;;;;;22.40;51.20;;;;;;5070970;28;1251;-65
2020/12/23 12:12:46;;;;;;;;;;;22.40;51.20;;;;;;5069734;28;1169;-66
2020/12/23 12:15:12;;;;;;;;;;;22.40;51.20;;;;;;5069569;28;1332;-66
2020/12/23 12:17:37;;;;;;;;;;;22.30;51.20;;;;;;5070454;28;1236;-65
2020/12/23 12:20:03;;;;;;;;;;;22.40;51.30;;;;;;5070749;28;1299;-65
2020/12/23 12:22:28;;;;;;;;;;;22.30;51.20;;;;;;5070465;28;1379;-66
2020/12/23 12:24:54;;;;;;;;;;;22.30;51.30;;;;;;5070612;28;1913;-66
2020/12/23 12:27:19;;;;;;;;;;;22.30;51.30;;;;;;5070000;28;1160;-66
2020/12/23 12:29:45;;;;;;;;;;;22.30;51.30;;;;;;5071050;28;1072;-66
2020/12/23 12:32:11;;;;;;;;;;;22.30;51.30;;;;;;5053015;28;1279;-66
2020/12/23 12:34:36;;;;;;;;;;;22.30;51.30;;;;;;5070339;28;1261;-66
2020/12/23 12:37:02;;;;;;;;;;;22.30;51.40;;;;;;5072462;28;1306;-65
2020/12/23 12:39:27;;;;;;;;;;;22.20;51.30;;;;;;5064882;28;1906;-65
2020/12/23 12:41:53;;;;;;;;;;;22.20;51.40;;;;;;5063969;28;1293;-65
2020/12/23 12:44:18;;;;;;;;;;;22.20;50.60;;;;;;5070512;28;1350;-65
2020/12/23 12:46:44;;;;;;;;;;;22.20;50.80;;;;;;5052277;28;1898;-65
2020/12/23 12:49:09;;;;;;;;;;;22.10;50.90;;;;;;5070377;28;1310;-65
2020/12/23 12:51:38;;;;;;;;;;;22.10;51.00;;;;;;5070919;28;1340;-65
2020/12/23 12:54:03;;;;;;;;;;;22.10;51.10;;;;;;5061156;28;1257;-65
2020/12/23 12:56:29;;;;;;;;;;;22.10;51.20;;;;;;5070036;28;1276;-65
2020/12/23 12:58:55;;;;;;;;;;;22.00;51.30;;;;;;5070708;28;1127;-65
2020/12/23 13:01:21;;;;;;;;;;;22.10;51.40;;;;;;5070279;28;1326;-65
2020/12/23 13:03:46;;;;;;;;;;;22.00;51.40;;;;;;5071101;28;1254;-65
2020/12/23 13:06:12;;;;;;;;;;;22.00;51.50;;;;;;5071247;28;1897;-65
2020/12/23 13:08:37;;;;;;;;;;;22.00;51.50;;;;;;5074165;28;1316;-65
2020/12/23 13:11:05;;;;;;;;;;;22.00;51.60;;;;;;5073663;28;1317;-65
2020/12/23 13:13:31;;;;;;;;;;;21.90;51.60;;;;;;5073323;28;1258;-64
2020/12/23 13:15:57;;;;;;;;;;;21.90;51.70;;;;;;5066340;28;1846;-64
2020/12/23 13:18:23;;;;;;;;;;;21.90;51.70;;;;;;5055741;28;1144;-64
2020/12/23 13:20:48;;;;;;;;;;;21.90;51.80;;;;;;5055135;28;1338;-65
2020/12/23 13:23:14;;;;;;;;;;;21.90;51.80;;;;;;5073248;28;1220;-64
2020/12/23 13:25:39;;;;;;;;;;;21.90;51.90;;;;;;5072903;28;1906;-65
2020/12/23 13:28:05;;;;;;;;;;;21.90;51.90;;;;;;5073423;28;1264;-65
2020/12/23 13:30:30;;;;;;;;;;;21.80;51.90;;;;;;5073337;28;1137;-65
2020/12/23 13:32:56;;;;;;;;;;;21.80;52.00;;;;;;5073303;28;1247;-65
2020/12/23 13:35:21;;;;;;;;;;;21.80;52.00;;;;;;5072714;28;1353;-65
2020/12/23 13:37:49;;;;;;;;;;;21.80;52.00;;;;;;5072981;28;1154;-65
2020/12/23 13:40:14;;;;;;;;;;;21.80;52.10;;;;;;5073309;28;1280;-65
2020/12/23 13:42:40;;;;;;;;;;;21.80;52.10;;;;;;5073459;28;1330;-65
2020/12/23 13:45:07;;;;;;;;;;;21.80;52.20;;;;;;5073079;28;1941;-65
2020/12/23 13:47:33;;;;;;;;;;;21.80;52.20;;;;;;5073030;28;1336;-65
2020/12/23 13:49:58;;;;;;;;;;;21.70;52.20;;;;;;5072670;28;1305;-64
2020/12/23 13:52:24;;;;;;;;;;;21.70;52.30;;;;;;5073265;28;1238;-65
2020/12/23 13:54:52;;;;;;;;;;;21.70;52.30;;;;;;5072821;28;1244;-65
2020/12/23 13:57:18;;;;;;;;;;;21.70;52.40;;;;;;5072875;28;1319;-65
2020/12/23 13:59:43;;;;;;;;;;;21.70;52.40;;;;;;5072872;28;1271;-65
2020/12/23 14:02:09;;;;;;;;;;;21.70;52.40;;;;;;5072930;28;1300;-65
2020/12/23 14:04:34;;;;;;;;;;;21.70;52.50;;;;;;5054767;28;1282;-65
2020/12/23 14:07:00;;;;;;;;;;;21.60;52.50;;;;;;5072308;28;1929;-65
2020/12/23 14:09:25;;;;;;;;;;;21.60;52.50;;;;;;5073086;28;1253;-65
2020/12/23 14:11:51;;;;;;;;;;;21.60;52.50;;;;;;5072776;28;1338;-65
2020/12/23 14:14:16;;;;;;;;;;;21.60;52.60;;;;;;5071775;28;1278;-66
2020/12/23 14:16:42;;;;;;;;;;;21.60;52.60;;;;;;5054142;28;1528;-66
2020/12/23 14:19:07;;;;;;;;;;;21.60;52.60;;;;;;5072591;28;1388;-65
2020/12/23 14:21:33;;;;;;;;;;;21.60;52.70;;;;;;5072119;28;1295;-65
2020/12/23 14:23:58;;;;;;;;;;;21.60;52.80;;;;;;5072273;28;1275;-65
2020/12/23 14:26:24;;;;;;;;;;;21.50;52.80;;;;;;5071527;28;1914;-64